Time;durP1;ratioP1;P1;durP2;ratioP2;P2;SDS_P1;SDS_P2;PMS_P1;PMS_P2;Temp;Humidity;BMP_temperature;BMP_pressure;BME280_temperature;BME280_humidity;BME280_pressure;Samples;Min_cycle;Max_cycle;Signal;HPM_P1;HPM_P2
2023/05/11 04:17:46;;;;;;;61.35;25.92;;;;;;;;;;2531873;23;20026;-93
2023/05/11 04:19:07;;;;;;;63.03;25.63;;;;;;;;;;2538247;23;20021;-92
2023/05/11 04:20:28;;;;;;;60.88;25.17;;;;;;;;;;2526408;23;20360;-92
2023/05/11 04:21:49;;;;;;;53.03;23.17;;;;;;;;;;2522027;23;20025;-92
2023/05/11 04:23:10;;;;;;;61.47;25.10;;;;;;;;;;2517991;23;20054;-93
2023/05/11 04:24:31;;;;;;;60.00;23.27;;;;;;;;;;2536861;23;20025;-93
2023/05/11 04:25:53;;;;;;;57.30;25.35;;;;;;;;;;2524888;23;20025;-93
2023/05/11 04:27:15;;;;;;;;;;;;;;;;;;2519831;23;20559;-93
2023/05/11 04:28:36;;;;;;;68.07;27.52;;;;;;;;;;2522815;23;20242;-94
2023/05/11 04:29:57;;;;;;;70.35;27.50;;;;;;;;;;2521322;23;20022;-93
2023/05/11 04:31:18;;;;;;;60.63;26.58;;;;;;;;;;2520001;23;20022;-94
2023/05/11 04:32:39;;;;;;;66.03;26.90;;;;;;;;;;2521451;23;20010;-94
2023/05/11 04:34:00;;;;;;;74.25;28.67;;;;;;;;;;2534875;23;20010;-93
2023/05/11 04:35:22;;;;;;;59.88;25.13;;;;;;;;;;2519346;23;20026;-94
2023/05/11 04:36:45;;;;;;;63.83;27.40;;;;;;;;;;2522656;23;20365;-92
2023/05/11 04:38:06;;;;;;;68.82;27.83;;;;;;;;;;2525442;23;20025;-93
2023/05/11 04:39:30;;;;;;;72.97;28.38;;;;;;;;;;2513675;23;20019;-93
2023/05/11 04:40:51;;;;;;;61.35;24.02;;;;;;;;;;2522266;23;20015;-92
2023/05/11 04:42:12;;;;;;;68.38;26.77;;;;;;;;;;2512784;23;20037;-94
2023/05/11 04:43:33;;;;;;;65.03;26.85;;;;;;;;;;2512780;23;20011;-94
2023/05/11 04:44:54;;;;;;;67.15;27.40;;;;;;;;;;2521039;23;20006;-93
2023/05/11 04:46:15;;;;;;;59.03;23.50;;;;;;;;;;2526078;23;20308;-94
2023/05/11 04:47:36;;;;;;;62.78;26.35;;;;;;;;;;2526147;23;20018;-94
2023/05/11 04:48:57;;;;;;;59.25;25.67;;;;;;;;;;2535194;23;20022;-93
2023/05/11 04:50:18;;;;;;;59.13;27.50;;;;;;;;;;2523255;23;20034;-94
2023/05/11 04:51:42;;;;;;;60.47;25.02;;;;;;;;;;2521012;23;20434;-93
2023/05/11 04:53:03;;;;;;;58.63;25.20;;;;;;;;;;2535540;23;20018;-93
2023/05/11 04:54:24;;;;;;;58.13;23.95;;;;;;;;;;2526663;23;20010;-93
2023/05/11 04:55:45;;;;;;;59.17;25.40;;;;;;;;;;2522823;23;20038;-93
2023/05/11 04:57:09;;;;;;;58.05;25.63;;;;;;;;;;2525574;23;20010;-95
2023/05/11 04:58:30;;;;;;;64.78;27.23;;;;;;;;;;2515725;23;20011;-93
2023/05/11 04:59:54;;;;;;;57.03;25.95;;;;;;;;;;2532982;23;20343;-96
2023/05/11 05:01:15;;;;;;;60.28;26.42;;;;;;;;;;2525997;23;20022;-92
2023/05/11 05:02:36;;;;;;;66.18;26.73;;;;;;;;;;2531751;23;20014;-95
2023/05/11 05:03:57;;;;;;;52.58;24.27;;;;;;;;;;2526218;23;20058;-92
2023/05/11 05:05:18;;;;;;;60.53;26.05;;;;;;;;;;2531147;23;20013;-93
2023/05/11 05:06:49;;;;;;;66.68;26.83;;;;;;;;;;2536751;23;20010;-91
2023/05/11 05:10:11;;;;;;;62.53;25.98;;;;;;;;;;2524519;23;20014;-93
2023/05/11 05:11:32;;;;;;;61.63;25.38;;;;;;;;;;2512377;23;20510;-92
2023/05/11 05:12:53;;;;;;;60.75;26.50;;;;;;;;;;2517156;23;20010;-93
2023/05/11 05:14:14;;;;;;;64.38;25.75;;;;;;;;;;2511752;23;20018;-93
2023/05/11 05:15:35;;;;;;;66.00;27.38;;;;;;;;;;2516097;23;20018;-96
2023/05/11 05:16:56;;;;;;;63.42;26.42;;;;;;;;;;2513534;23;20011;-92
2023/05/11 05:18:18;;;;;;;73.68;29.40;;;;;;;;;;2520683;23;20022;-96
2023/05/11 05:19:39;;;;;;;70.55;29.42;;;;;;;;;;2511357;23;20026;-96
2023/05/11 05:21:00;;;;;;;68.22;27.88;;;;;;;;;;2520571;23;20014;-93
2023/05/11 05:22:58;;;;;;;;;;;;;;;;;;;;;
2023/05/11 05:24:44;;;;;;;56.10;26.50;;;;;;;;;;2515017;23;20011;-95
2023/05/11 05:26:14;;;;;;;61.47;26.60;;;;;;;;;;2539312;23;20022;-94
2023/05/11 05:27:35;;;;;;;73.47;29.45;;;;;;;;;;2518251;23;20018;-92
2023/05/11 05:28:56;;;;;;;70.38;29.60;;;;;;;;;;2523138;23;20014;-95
2023/05/11 05:30:17;;;;;;;75.65;30.45;;;;;;;;;;2534189;23;20033;-94
2023/05/11 05:31:41;;;;;;;75.78;28.27;;;;;;;;;;2522721;23;20022;-89
2023/05/11 05:33:31;;;;;;;73.15;28.50;;;;;;;;;;2536018;23;20022;-94
2023/05/11 05:35:02;;;;;;;71.38;28.67;;;;;;;;;;2527148;23;20010;-93
2023/05/11 05:36:23;;;;;;;63.83;28.77;;;;;;;;;;2508478;23;20023;-92
2023/05/11 05:37:46;;;;;;;80.07;31.58;;;;;;;;;;2520197;23;20010;-93
2023/05/11 05:39:09;;;;;;;89.10;33.03;;;;;;;;;;2506743;23;20011;-95
2023/05/11 05:40:58;;;;;;;77.07;31.60;;;;;;;;;;2511063;23;20306;-95
2023/05/11 05:42:21;;;;;;;82.55;33.38;;;;;;;;;;2512683;23;20015;-93
2023/05/11 05:43:42;;;;;;;;;;;;;;;;;;2517275;23;20688;-94
2023/05/11 05:45:13;;;;;;;;;;;;;;;;;;;;;
2023/05/11 05:46:57;;;;;;;72.53;30.70;;;;;;;;;;2521231;23;20068;-93
2023/05/11 05:48:18;;;;;;;67.72;30.98;;;;;;;;;;2512558;23;20022;-95
2023/05/11 05:49:55;;;;;;;82.70;32.08;;;;;;;;;;2505345;23;20011;-93
2023/05/11 05:51:24;;;;;;;78.40;30.00;;;;;;;;;;2523757;23;20069;-93
2023/05/11 05:52:45;;;;;;;82.07;32.53;;;;;;;;;;2524673;23;20106;-93
2023/05/11 05:54:06;;;;;;;74.07;31.08;;;;;;;;;;2510131;23;20033;-94
2023/05/11 05:55:27;;;;;;;82.97;33.88;;;;;;;;;;2517568;23;20014;-94
2023/05/11 05:56:51;;;;;;;81.30;33.33;;;;;;;;;;2524279;23;20089;-95
2023/05/11 05:58:12;;;;;;;81.47;31.10;;;;;;;;;;2510045;23;20468;-93
2023/05/11 05:59:33;;;;;;;79.15;33.55;;;;;;;;;;2520448;23;20010;-93
2023/05/11 06:00:55;;;;;;;83.55;32.20;;;;;;;;;;2526255;23;20011;-94
2023/05/11 06:02:16;;;;;;;76.80;33.55;;;;;;;;;;2509542;23;20014;-92
2023/05/11 06:03:38;;;;;;;76.65;32.90;;;;;;;;;;2519370;23;20007;-94
2023/05/11 06:04:59;;;;;;;80.05;31.15;;;;;;;;;;2523972;23;20013;-94
2023/05/11 06:06:23;;;;;;;79.53;32.70;;;;;;;;;;2509786;23;20023;-93
2023/05/11 06:07:44;;;;;;;73.70;31.40;;;;;;;;;;2519040;23;20464;-93
2023/05/11 06:09:08;;;;;;;81.10;32.83;;;;;;;;;;2527059;23;20352;-93
2023/05/11 06:10:34;;;;;;;83.47;33.40;;;;;;;;;;2512124;23;20070;-95
2023/05/11 06:11:58;;;;;;;79.75;31.15;;;;;;;;;;2521281;23;20021;-93
2023/05/11 06:13:19;;;;;;;70.70;31.92;;;;;;;;;;2524185;23;20019;-93
2023/05/11 06:14:40;;;;;;;76.97;33.42;;;;;;;;;;2525325;23;20007;-94
2023/05/11 06:16:02;;;;;;;74.38;31.00;;;;;;;;;;2516595;23;20014;-94
2023/05/11 06:17:23;;;;;;;68.50;30.85;;;;;;;;;;2536418;23;20017;-94
2023/05/11 06:18:44;;;;;;;74.43;31.70;;;;;;;;;;2538285;23;20033;-94
2023/05/11 06:20:06;;;;;;;78.20;31.75;;;;;;;;;;2523199;23;20014;-95
2023/05/11 06:21:27;;;;;;;76.47;31.48;;;;;;;;;;2534281;23;20009;-95
2023/05/11 06:22:48;;;;;;;82.13;31.85;;;;;;;;;;2524931;23;20022;-94
2023/05/11 06:24:14;;;;;;;77.15;33.40;;;;;;;;;;2532324;23;20018;-93
2023/05/11 06:25:35;;;;;;;90.05;35.70;;;;;;;;;;2533895;23;20022;-94
2023/05/11 06:26:57;;;;;;;76.47;32.28;;;;;;;;;;2539283;23;20018;-94
2023/05/11 06:28:18;;;;;;;66.32;31.50;;;;;;;;;;2523745;23;20022;-96
2023/05/11 06:29:41;;;;;;;80.32;31.60;;;;;;;;;;2535411;23;20006;-95
2023/05/11 06:31:02;;;;;;;79.15;32.33;;;;;;;;;;2521349;23;20041;-95
2023/05/11 06:32:23;;;;;;;72.13;32.70;;;;;;;;;;2534581;23;20048;-94
2023/05/11 06:33:44;;;;;;;79.65;33.05;;;;;;;;;;2535238;23;20021;-94
2023/05/11 06:35:05;;;;;;;73.80;30.92;;;;;;;;;;2539956;23;20013;-94
2023/05/11 06:36:26;;;;;;;75.53;33.45;;;;;;;;;;2523014;23;20022;-94
2023/05/11 06:37:48;;;;;;;80.28;32.65;;;;;;;;;;2534385;23;20061;-92
2023/05/11 06:39:09;;;;;;;78.87;31.90;;;;;;;;;;2523791;23;20021;-94
2023/05/11 06:40:30;;;;;;;79.28;34.40;;;;;;;;;;2533053;23;20403;-94
2023/05/11 06:41:52;;;;;;;74.20;32.42;;;;;;;;;;2522888;23;20015;-93
2023/05/11 06:43:13;;;;;;;77.65;34.58;;;;;;;;;;2533727;23;20025;-94
2023/05/11 06:44:34;;;;;;;85.80;34.13;;;;;;;;;;2537551;23;20014;-92
2023/05/11 06:45:55;;;;;;;78.78;34.83;;;;;;;;;;2536933;23;20022;-95
2023/05/11 06:47:16;;;;;;;89.33;33.90;;;;;;;;;;2524565;23;20015;-94
2023/05/11 06:48:37;;;;;;;84.45;33.65;;;;;;;;;;2532724;23;20412;-95
2023/05/11 06:49:58;;;;;;;82.30;33.33;;;;;;;;;;2527432;23;20006;-94
2023/05/11 06:51:20;;;;;;;88.88;37.42;;;;;;;;;;2519446;23;20006;-95
2023/05/11 06:52:41;;;;;;;92.70;36.35;;;;;;;;;;2535694;23;20021;-95
2023/05/11 06:54:05;;;;;;;88.05;35.42;;;;;;;;;;2523374;23;20006;-95
2023/05/11 06:55:26;;;;;;;78.80;32.97;;;;;;;;;;2537150;23;20005;-96
2023/05/11 06:56:47;;;;;;;82.28;32.88;;;;;;;;;;2536346;23;20026;-95
2023/05/11 06:58:08;;;;;;;84.15;33.00;;;;;;;;;;2539736;23;20014;-93
2023/05/11 06:59:31;;;;;;;79.72;33.38;;;;;;;;;;2536053;23;20010;-95
2023/05/11 07:01:14;;;;;;;89.15;34.28;;;;;;;;;;2539176;23;20010;-94
2023/05/11 07:02:50;;;;;;;79.07;32.80;;;;;;;;;;2526434;23;20083;-94
2023/05/11 07:04:12;;;;;;;84.78;36.00;;;;;;;;;;2534495;23;20017;-94
2023/05/11 07:05:42;;;;;;;73.18;33.17;;;;;;;;;;2527016;23;20360;-94
2023/05/11 07:07:20;;;;;;;86.90;34.92;;;;;;;;;;2521515;23;20064;-94
2023/05/11 07:09:02;;;;;;;82.95;34.75;;;;;;;;;;2526716;23;20006;-95
2023/05/11 07:10:42;;;;;;;78.63;34.28;;;;;;;;;;2539032;23;20010;-95
2023/05/11 07:12:43;;;;;;;86.07;35.22;;;;;;;;;;2525833;23;20006;-95
2023/05/11 07:14:33;;;;;;;80.30;32.95;;;;;;;;;;2516084;23;20018;-96
2023/05/11 07:16:03;;;;;;;119.57;46.40;;;;;;;;;;2501703;23;20007;-94
2023/05/11 07:17:39;;;;;;;79.28;34.45;;;;;;;;;;2500197;23;20086;-94
2023/05/11 07:19:21;;;;;;;95.53;37.05;;;;;;;;;;2515584;23;20026;-95
2023/05/11 07:22:51;;;;;;;99.97;37.83;;;;;;;;;;2530490;23;20014;-96
2023/05/11 07:24:27;;;;;;;88.00;36.38;;;;;;;;;;2525782;23;20010;-95
2023/05/11 07:25:52;;;;;;;100.57;38.67;;;;;;;;;;2511538;23;20039;-95
2023/05/11 07:27:36;;;;;;;97.63;35.88;;;;;;;;;;2522719;23;20029;-95
2023/05/11 07:29:25;;;;;;;90.32;34.90;;;;;;;;;;2515251;23;20015;-94
2023/05/11 07:30:46;;;;;;;98.40;36.88;;;;;;;;;;2513262;23;20009;-94
2023/05/11 07:32:09;;;;;;;89.15;36.58;;;;;;;;;;2522785;23;20010;-94
2023/05/11 07:33:44;;;;;;;87.65;37.35;;;;;;;;;;2514107;23;20003;-93
2023/05/11 07:35:35;;;;;;;96.00;37.20;;;;;;;;;;2511777;23;20111;-95
2023/05/11 07:37:01;;;;;;;85.25;36.35;;;;;;;;;;2502083;23;20011;-95
2023/05/11 07:38:32;;;;;;;84.22;33.97;;;;;;;;;;2523413;23;20014;-94
2023/05/11 07:40:15;;;;;;;;;;;;;;;;;;;;;
2023/05/11 07:41:36;;;;;;;82.95;35.55;;;;;;;;;;2526959;23;20007;-95
2023/05/11 07:43:09;;;;;;;84.10;34.85;;;;;;;;;;2525328;23;20006;-93
2023/05/11 07:44:40;;;;;;;81.68;33.03;;;;;;;;;;2518443;23;20035;-93
2023/05/11 07:46:26;;;;;;;110.88;40.55;;;;;;;;;;2495920;23;20007;-95
2023/05/11 07:47:55;;;;;;;83.45;34.03;;;;;;;;;;2532978;23;20014;-94
2023/05/11 07:49:43;;;;;;;;;;;;;;;;;;;;;
2023/05/11 07:51:37;;;;;;;82.10;32.63;;;;;;;;;;2538029;23;20006;-93
2023/05/11 07:53:29;;;;;;;84.95;33.15;;;;;;;;;;2528377;23;20022;-94
2023/05/11 07:54:59;;;;;;;77.03;32.75;;;;;;;;;;2527622;23;20014;-94
2023/05/11 07:56:31;;;;;;;98.65;39.10;;;;;;;;;;2510778;23;20021;-94
2023/05/11 08:00:11;;;;;;;81.32;33.35;;;;;;;;;;2482366;23;20007;-94
2023/05/11 08:01:40;;;;;;;78.68;34.55;;;;;;;;;;2503778;23;20476;-95
2023/05/11 08:03:13;;;;;;;77.75;34.63;;;;;;;;;;2527385;23;20021;-92
2023/05/11 08:09:03;;;;;;;88.10;35.33;;;;;;;;;;2479791;23;20008;-94
2023/05/11 08:10:31;;;;;;;82.32;36.35;;;;;;;;;;2502067;23;20087;-94
2023/05/11 08:12:33;;;;;;;;;;;;;;;;;;;;;
2023/05/11 08:18:18;;;;;;;;;;;;;;;;;;;;;
2023/05/11 08:19:56;;;;;;;75.00;32.22;;;;;;;;;;2496011;23;20011;-92
2023/05/11 08:36:44;;;;;;;79.45;34.25;;;;;;;;;;2460279;24;20001;-94
2023/05/11 08:40:47;;;;;;;;;;;;;;;;;;;;;
2023/05/11 08:42:29;;;;;;;72.40;31.30;;;;;;;;;;2452667;24;20013;-95
2023/05/11 08:44:56;;;;;;;79.30;32.95;;;;;;;;;;2456304;24;20017;-94
2023/05/11 08:46:36;;;;;;;;;;;;;;;;;;;;;
2023/05/11 08:54:46;;;;;;;;;;;;;;;;;;;;;
2023/05/11 08:56:23;;;;;;;;;;;;;;;;;;;;;
2023/05/11 08:58:19;;;;;;;;;;;;;;;;;;;;;
2023/05/11 10:01:05;;;;;;;56.00;27.58;;;;;;;;;;2512995;23;20031;-96
2023/05/11 10:02:34;;;;;;;52.65;24.90;;;;;;;;;;2511453;23;20425;-96
2023/05/11 10:03:59;;;;;;;50.05;26.55;;;;;;;;;;2520188;23;20022;-96
2023/05/11 10:05:30;;;;;;;54.45;25.48;;;;;;;;;;2512996;23;20015;-96
2023/05/11 10:06:52;;;;;;;58.00;25.85;;;;;;;;;;2525086;23;20033;-96
2023/05/11 10:08:13;;;;;;;57.65;27.08;;;;;;;;;;2511945;23;20022;-96
2023/05/11 10:09:37;;;;;;;50.35;25.40;;;;;;;;;;2500671;23;20046;-96
2023/05/11 10:11:00;;;;;;;62.28;28.58;;;;;;;;;;2498254;23;20086;-96
2023/05/11 10:12:25;;;;;;;56.45;25.98;;;;;;;;;;2510825;23;20409;-96
2023/05/11 10:13:46;;;;;;;59.20;24.98;;;;;;;;;;2501306;23;20038;-96
2023/05/11 10:15:08;;;;;;;63.13;25.48;;;;;;;;;;2510093;23;20011;-96
2023/05/11 10:16:29;;;;;;;59.90;26.35;;;;;;;;;;2500626;23;20007;-96
2023/05/11 10:17:53;;;;;;;58.15;26.25;;;;;;;;;;2508637;23;20015;-96
2023/05/11 10:19:17;;;;;;;55.45;26.15;;;;;;;;;;2500309;23;20023;-96
2023/05/11 10:20:38;;;;;;;61.00;25.77;;;;;;;;;;2513013;23;20018;-96
2023/05/11 10:22:00;;;;;;;62.55;26.88;;;;;;;;;;2503445;23;20007;-96
2023/05/11 10:23:32;;;;;;;61.45;25.67;;;;;;;;;;2510921;23;20018;-96
2023/05/11 10:24:56;;;;;;;60.13;28.00;;;;;;;;;;2503537;23;20015;-96
2023/05/11 10:26:18;;;;;;;61.65;28.52;;;;;;;;;;2499593;23;20011;-96
2023/05/11 10:27:39;;;;;;;55.33;25.77;;;;;;;;;;2498492;23;20012;-96
2023/05/11 10:29:00;;;;;;;56.42;27.92;;;;;;;;;;2508308;23;20007;-96
2023/05/11 10:30:24;;;;;;;59.33;27.67;;;;;;;;;;2503109;23;20012;-96
2023/05/11 10:31:47;;;;;;;62.45;28.67;;;;;;;;;;2508482;23;20374;-96
2023/05/11 10:33:08;;;;;;;62.72;27.92;;;;;;;;;;2502513;23;20015;-96
2023/05/11 10:34:32;;;;;;;61.83;27.77;;;;;;;;;;2508473;23;20030;-96
2023/05/11 10:35:54;;;;;;;61.20;29.08;;;;;;;;;;2504080;23;20018;-96
2023/05/11 10:37:24;;;;;;;65.78;29.33;;;;;;;;;;2508840;23;20019;-96
2023/05/11 10:39:02;;;;;;;65.18;28.17;;;;;;;;;;2502898;23;20019;-96
2023/05/11 10:40:23;;;;;;;53.45;26.65;;;;;;;;;;2523966;23;20014;-96
2023/05/11 10:42:00;;;;;;;66.63;26.70;;;;;;;;;;2505702;23;20011;-96
2023/05/11 10:43:52;;;;;;;59.60;28.02;;;;;;;;;;2499149;23;20007;-95
2023/05/11 10:45:25;;;;;;;61.55;27.73;;;;;;;;;;2490944;23;20479;-96
2023/05/11 10:47:07;;;;;;;63.17;27.88;;;;;;;;;;2501969;23;20022;-96
2023/05/11 10:48:56;;;;;;;77.65;32.60;;;;;;;;;;2500489;23;20014;-96
2023/05/11 10:50:43;;;;;;;67.82;28.10;;;;;;;;;;2515025;23;20015;-96
2023/05/11 10:52:30;;;;;;;62.58;29.02;;;;;;;;;;2501736;23;20023;-95
2023/05/11 10:54:17;;;;;;;69.22;30.00;;;;;;;;;;2524455;23;19998;-96
2023/05/11 10:55:56;;;;;;;70.10;30.90;;;;;;;;;;2495085;23;20011;-95
2023/05/11 10:57:36;;;;;;;68.88;29.90;;;;;;;;;;2525584;23;20017;-96
2023/05/11 10:59:03;;;;;;;72.15;30.88;;;;;;;;;;2499115;23;20011;-96
2023/05/11 11:00:46;;;;;;;59.15;27.05;;;;;;;;;;2495878;23;20011;-96
2023/05/11 11:02:07;;;;;;;61.00;27.05;;;;;;;;;;2515182;23;20033;-96
2023/05/11 11:03:58;;;;;;;60.58;28.00;;;;;;;;;;2511637;23;20055;-96
2023/05/11 11:07:19;;;;;;;64.47;28.65;;;;;;;;;;2514723;23;20022;-96
2023/05/11 11:09:04;;;;;;;83.13;34.42;;;;;;;;;;2494226;23;20011;-96
2023/05/11 11:10:35;;;;;;;68.88;28.70;;;;;;;;;;2525679;23;20014;-96
2023/05/11 11:12:07;;;;;;;64.38;29.00;;;;;;;;;;2502827;23;20121;-95
2023/05/11 11:13:30;;;;;;;62.80;27.30;;;;;;;;;;2509164;23;20011;-96
2023/05/11 11:14:59;;;;;;;59.30;26.98;;;;;;;;;;2503195;23;20349;-96
2023/05/11 11:16:22;;;;;;;64.65;29.00;;;;;;;;;;2510407;23;20011;-96
2023/05/11 11:18:09;;;;;;;67.93;28.13;;;;;;;;;;2503700;23;20011;-96
2023/05/11 11:19:30;;;;;;;68.40;30.08;;;;;;;;;;2511430;23;20018;-96
2023/05/11 11:20:55;;;;;;;60.83;27.67;;;;;;;;;;2514224;23;20010;-96
2023/05/11 11:22:35;;;;;;;57.88;25.05;;;;;;;;;;2510338;23;20010;-96
2023/05/11 11:23:56;;;;;;;60.38;28.13;;;;;;;;;;2498031;23;20015;-96
2023/05/11 11:25:37;;;;;;;63.05;28.10;;;;;;;;;;2508610;23;20011;-96
2023/05/11 11:27:13;;;;;;;64.82;26.70;;;;;;;;;;2510334;23;20014;-96
2023/05/11 11:29:10;;;;;;;68.95;29.27;;;;;;;;;;2501227;23;20007;-96
2023/05/11 11:30:32;;;;;;;65.07;26.30;;;;;;;;;;2514108;23;20022;-96
2023/05/11 11:31:53;;;;;;;56.13;26.75;;;;;;;;;;2510304;23;20028;-96
2023/05/11 11:33:14;;;;;;;54.17;26.90;;;;;;;;;;2512433;23;20052;-95
2023/05/11 11:34:35;;;;;;;53.63;25.38;;;;;;;;;;2511105;23;20007;-95
2023/05/11 11:35:56;;;;;;;58.88;25.73;;;;;;;;;;2512003;23;20018;-96
2023/05/11 11:37:17;;;;;;;58.55;27.02;;;;;;;;;;2511873;23;20011;-95
2023/05/11 11:38:56;;;;;;;72.88;31.38;;;;;;;;;;2499324;23;20015;-96
2023/05/11 11:40:33;;;;;;;54.67;24.13;;;;;;;;;;2513992;23;20015;-96
2023/05/11 11:42:08;;;;;;;54.65;24.33;;;;;;;;;;2500678;23;20007;-96
2023/05/11 11:43:43;;;;;;;55.75;27.63;;;;;;;;;;2509309;23;20015;-96
2023/05/11 11:45:22;;;;;;;55.95;24.90;;;;;;;;;;2499077;23;20023;-95
2023/05/11 11:46:49;;;;;;;53.92;24.67;;;;;;;;;;2513786;23;20003;-96
2023/05/11 11:48:17;;;;;;;55.50;25.27;;;;;;;;;;2510850;23;20026;-96
2023/05/11 11:49:50;;;;;;;53.63;25.80;;;;;;;;;;2511454;23;20026;-96
2023/05/11 11:51:12;;;;;;;57.38;25.23;;;;;;;;;;2510620;23;20330;-95
2023/05/11 11:52:33;;;;;;;53.35;24.33;;;;;;;;;;2512242;23;20018;-96
2023/05/11 11:53:58;;;;;;;58.25;24.25;;;;;;;;;;2510576;23;20074;-95
2023/05/11 11:55:39;;;;;;;57.25;25.33;;;;;;;;;;2511576;23;20017;-96
2023/05/11 11:57:29;;;;;;;61.97;27.17;;;;;;;;;;2513543;23;20007;-96
2023/05/11 11:59:04;;;;;;;85.47;35.90;;;;;;;;;;2476020;23;20015;-96
2023/05/11 12:00:25;;;;;;;58.03;26.45;;;;;;;;;;2498023;23;20099;-96
2023/05/11 12:01:50;;;;;;;56.57;26.60;;;;;;;;;;2496772;23;20027;-96
2023/05/11 12:03:21;;;;;;;61.78;25.02;;;;;;;;;;2489294;23;20407;-96
2023/05/11 12:04:53;;;;;;;60.40;27.85;;;;;;;;;;2487999;23;20016;-96
2023/05/11 12:06:19;;;;;;;52.55;24.63;;;;;;;;;;2488892;23;20026;-96
2023/05/11 12:07:40;;;;;;;56.78;26.08;;;;;;;;;;2488650;23;19999;-96
2023/05/11 12:09:03;;;;;;;81.65;36.50;;;;;;;;;;2469910;23;20016;-96
2023/05/11 12:10:24;;;;;;;56.63;24.48;;;;;;;;;;2484119;23;20011;-95
2023/05/11 12:11:53;;;;;;;54.42;23.52;;;;;;;;;;2494786;23;20015;-96
2023/05/11 12:13:16;;;;;;;54.00;23.92;;;;;;;;;;2488251;23;20011;-96
2023/05/11 12:14:48;;;;;;;;;;;;;;;;;;;;;
2023/05/11 12:16:13;;;;;;;55.78;23.48;;;;;;;;;;2499310;23;20015;-96
2023/05/11 12:17:39;;;;;;;48.42;23.55;;;;;;;;;;2498719;23;20022;-96
2023/05/11 12:19:25;;;;;;;54.85;22.42;;;;;;;;;;2484196;23;20023;-96
2023/05/11 12:20:51;;;;;;;54.97;23.92;;;;;;;;;;2478296;23;20012;-96
2023/05/11 12:22:15;;;;;;;46.30;22.67;;;;;;;;;;2480287;23;20152;-96
2023/05/11 12:23:36;;;;;;;48.85;23.58;;;;;;;;;;2491192;23;20016;-96
2023/05/11 12:25:11;;;;;;;60.30;26.85;;;;;;;;;;2485911;23;20019;-96
2023/05/11 12:26:34;;;;;;;51.35;23.80;;;;;;;;;;2491701;23;20016;-95
2023/05/11 12:28:00;;;;;;;;;;;;;;;;;;2486840;23;20408;-96
2023/05/11 12:29:24;;;;;;;41.05;21.52;;;;;;;;;;2483446;23;19917;-96
2023/05/11 12:31:00;;;;;;;52.00;23.58;;;;;;;;;;2498631;23;20012;-96
2023/05/11 12:32:29;;;;;;;49.17;22.13;;;;;;;;;;2506379;23;20007;-96
2023/05/11 12:34:12;;;;;;;50.75;21.58;;;;;;;;;;2510937;23;20006;-95
2023/05/11 12:35:37;;;;;;;49.40;21.55;;;;;;;;;;2509768;23;20021;-96
2023/05/11 12:37:00;;;;;;;52.10;23.05;;;;;;;;;;2523039;23;20213;-96
2023/05/11 12:38:33;;;;;;;54.22;23.80;;;;;;;;;;2509101;23;20022;-96
2023/05/11 12:41:58;;;;;;;51.67;24.15;;;;;;;;;;2479637;23;20008;-95
2023/05/11 12:43:20;;;;;;;46.55;21.98;;;;;;;;;;2500439;23;20008;-95
2023/05/11 12:44:43;;;;;;;39.78;20.70;;;;;;;;;;2508249;23;20007;-96
2023/05/11 12:46:05;;;;;;;47.40;21.05;;;;;;;;;;2500093;23;20007;-95
2023/05/11 12:47:31;;;;;;;49.20;21.48;;;;;;;;;;2509287;23;20011;-96
2023/05/11 12:49:02;;;;;;;38.05;19.45;;;;;;;;;;2500052;23;20011;-95
2023/05/11 12:50:23;;;;;;;42.17;19.95;;;;;;;;;;2508890;23;20482;-96
2023/05/11 12:52:06;;;;;;;42.22;21.52;;;;;;;;;;2500932;23;20014;-94
2023/05/11 12:53:33;;;;;;;46.50;20.42;;;;;;;;;;2510112;23;20018;-95
2023/05/11 12:54:58;;;;;;;37.97;20.45;;;;;;;;;;2511915;23;19995;-96
2023/05/11 13:10:05;;;;;;;44.05;20.55;;;;;;;;;;2518408;23;20030;-91
2023/05/11 13:11:29;;;;;;;38.25;19.08;;;;;;;;;;2536436;23;20026;-94
2023/05/11 13:12:50;;;;;;;47.35;18.80;;;;;;;;;;2548128;23;20029;-94
2023/05/11 13:14:15;;;;;;;43.73;18.60;;;;;;;;;;2536129;23;20085;-95
2023/05/11 13:15:49;;;;;;;41.08;19.65;;;;;;;;;;2532563;23;20017;-94
2023/05/11 13:17:10;;;;;;;42.53;18.88;;;;;;;;;;2538201;23;20039;-93
2023/05/11 13:18:31;;;;;;;45.83;19.88;;;;;;;;;;2529864;23;20018;-94
2023/05/11 13:19:52;;;;;;;47.35;22.50;;;;;;;;;;2515860;23;20112;-95
2023/05/11 13:21:13;;;;;;;43.60;19.17;;;;;;;;;;2546169;23;20014;-94
2023/05/11 13:22:35;;;;;;;43.60;19.40;;;;;;;;;;2538841;23;20010;-94
2023/05/11 13:23:59;;;;;;;34.90;18.08;;;;;;;;;;2548392;23;20028;-94
2023/05/11 22:04:05;;;;;;;29.48;15.65;;;;;;;;;;2507745;23;20023;-93
2023/05/11 22:05:27;;;;;;;20.52;13.13;;;;;;;;;;2535470;23;20034;-92
2023/05/11 22:06:49;;;;;;;30.27;14.48;;;;;;;;;;2532377;23;20017;-93
2023/05/11 22:08:10;;;;;;;24.58;13.48;;;;;;;;;;2529710;23;20013;-93
2023/05/11 22:09:31;;;;;;;19.03;12.13;;;;;;;;;;2532063;23;20025;-92
2023/05/11 22:10:53;;;;;;;24.55;13.68;;;;;;;;;;2531727;23;20400;-91
2023/05/11 22:12:18;;;;;;;22.48;13.20;;;;;;;;;;2540368;23;20479;-93
2023/05/11 22:13:39;;;;;;;22.15;13.52;;;;;;;;;;2526377;23;20010;-93
2023/05/11 22:15:14;;;;;;;;;;;;;;;;;;;;;
2023/05/11 22:16:35;;;;;;;23.23;13.50;;;;;;;;;;2537037;23;20029;-92
2023/05/11 22:17:56;;;;;;;20.02;13.52;;;;;;;;;;2523143;23;20021;-93
2023/05/11 22:19:18;;;;;;;22.42;13.85;;;;;;;;;;2523945;23;20018;-92
2023/05/11 22:20:39;;;;;;;23.47;13.90;;;;;;;;;;2520611;23;20412;-92
2023/05/11 22:22:00;;;;;;;22.70;12.63;;;;;;;;;;2520765;23;20017;-93
2023/05/11 22:23:23;;;;;;;18.80;12.45;;;;;;;;;;2520190;23;20494;-91
2023/05/11 22:24:47;;;;;;;20.60;12.48;;;;;;;;;;2543000;23;20013;-94
2023/05/11 22:26:08;;;;;;;25.13;14.65;;;;;;;;;;2535459;23;20010;-91
2023/05/11 22:27:29;;;;;;;22.13;13.02;;;;;;;;;;2531063;23;20017;-93
2023/05/11 22:28:51;;;;;;;27.83;14.52;;;;;;;;;;2530015;23;20025;-93
2023/05/11 22:30:13;;;;;;;19.95;11.80;;;;;;;;;;2530622;23;20021;-94
2023/05/11 22:31:34;;;;;;;22.65;13.65;;;;;;;;;;2530756;23;20017;-94
2023/05/11 22:32:55;;;;;;;21.03;12.80;;;;;;;;;;2530873;23;20033;-92
2023/05/11 22:34:18;;;;;;;21.05;13.40;;;;;;;;;;2529909;23;20021;-93
2023/05/11 22:35:39;;;;;;;21.52;12.57;;;;;;;;;;2532932;23;20081;-91
2023/05/11 22:37:00;;;;;;;23.38;13.45;;;;;;;;;;2532419;23;20014;-93
2023/05/11 22:38:21;;;;;;;23.63;13.45;;;;;;;;;;2531853;23;20105;-93
2023/05/11 22:39:42;;;;;;;19.20;12.43;;;;;;;;;;2530695;23;20010;-93
2023/05/11 22:41:03;;;;;;;21.27;12.48;;;;;;;;;;2532830;23;20017;-93
2023/05/11 22:42:24;;;;;;;19.75;12.18;;;;;;;;;;2531702;23;20447;-92
2023/05/11 22:43:46;;;;;;;21.02;12.75;;;;;;;;;;2533100;23;20010;-93
2023/05/11 22:45:07;;;;;;;20.73;12.27;;;;;;;;;;2533534;23;20014;-92
2023/05/11 22:46:28;;;;;;;18.00;11.88;;;;;;;;;;2533169;23;20013;-94
2023/05/11 22:47:50;;;;;;;24.52;12.73;;;;;;;;;;2532289;23;20006;-91
2023/05/11 22:49:13;;;;;;;20.30;12.32;;;;;;;;;;2534681;23;20201;-93
2023/05/11 22:50:34;;;;;;;19.10;12.32;;;;;;;;;;2531906;23;20093;-93
2023/05/11 22:51:57;;;;;;;28.08;13.52;;;;;;;;;;2533348;23;20013;-93
2023/05/11 22:53:19;;;;;;;21.60;12.93;;;;;;;;;;2530019;23;20018;-94
2023/05/11 22:54:43;;;;;;;19.05;11.85;;;;;;;;;;2544821;23;20013;-93
2023/05/11 22:56:06;;;;;;;26.20;12.90;;;;;;;;;;2534052;23;20144;-92
2023/05/11 22:57:32;;;;;;;24.15;13.15;;;;;;;;;;2530808;23;20013;-93
2023/05/11 22:58:58;;;;;;;24.05;12.77;;;;;;;;;;2532356;23;20348;-94
2023/05/11 23:00:19;;;;;;;23.17;13.07;;;;;;;;;;2532964;23;20367;-93
2023/05/11 23:01:43;;;;;;;17.98;11.25;;;;;;;;;;2534751;23;20014;-92
2023/05/11 23:03:04;;;;;;;31.83;16.10;;;;;;;;;;2540969;23;20016;-94
2023/05/11 23:04:25;;;;;;;14.77;9.48;;;;;;;;;;2522941;23;20006;-93
2023/05/11 23:05:47;;;;;;;18.38;11.23;;;;;;;;;;2519167;23;20010;-93
2023/05/11 23:07:11;;;;;;;19.08;11.23;;;;;;;;;;2519320;23;20478;-91
2023/05/11 23:08:32;;;;;;;21.48;11.32;;;;;;;;;;2529698;23;20066;-92
2023/05/11 23:09:54;;;;;;;17.73;10.50;;;;;;;;;;2523499;23;20010;-93
2023/05/11 23:11:16;;;;;;;23.48;11.82;;;;;;;;;;2519458;23;20007;-93
2023/05/11 23:12:37;;;;;;;23.13;12.05;;;;;;;;;;2519154;23;20268;-93
2023/05/11 23:13:58;;;;;;;16.67;10.98;;;;;;;;;;2528535;23;20018;-92
2023/05/11 23:15:42;;;;;;;20.27;10.73;;;;;;;;;;2522864;23;20140;-93
2023/05/11 23:17:03;;;;;;;18.33;11.18;;;;;;;;;;2524634;23;20007;-93
2023/05/11 23:18:24;;;;;;;19.57;10.13;;;;;;;;;;2521080;23;20013;-93
2023/05/11 23:19:45;;;;;;;15.50;11.32;;;;;;;;;;2533406;23;20729;-92
2023/05/11 23:21:07;;;;;;;22.98;12.52;;;;;;;;;;2521297;23;20013;-94
2023/05/11 23:22:28;;;;;;;16.50;10.45;;;;;;;;;;2518753;23;20034;-92
2023/05/11 23:23:49;;;;;;;26.80;13.65;;;;;;;;;;2519404;23;20194;-92
2023/05/11 23:25:19;;;;;;;16.75;9.73;;;;;;;;;;2532837;23;20117;-91
2023/05/11 23:26:40;;;;;;;17.08;11.75;;;;;;;;;;2524722;23;20010;-91
2023/05/11 23:28:02;;;;;;;22.20;11.20;;;;;;;;;;2535577;23;20013;-93
2023/05/11 23:29:23;;;;;;;17.73;10.60;;;;;;;;;;2523804;23;20332;-93